Wetterdaten: Woche 16.08.10 - 22.08.10 (KW33)
Datum Zeit Temperatur Luftfeuchte Luftdruck Niederschlag Wind Richtung Sonnenschein Solar Taupunkt Windchill Windben
16.08.2010 00:00 13.2 C 89 % 1014.4 hPa 0.0 l/m 3.7 km/h (1 Bft) S-SO 0.00 h 0 W/m 11.5 C 13.2 C 7.3 km/h (2 Bft)
16.08.2010 01:00 13.0 C 88 % 1014.0 hPa 0.0 l/m 2.2 km/h (1 Bft) S-SO 0.00 h 0 W/m 10.9 C 13.0 C 4.5 km/h (1 Bft)
16.08.2010 02:00 12.8 C 88 % 1013.4 hPa 0.0 l/m 5.0 km/h (1 Bft) S-SO 0.00 h 0 W/m 10.9 C 12.8 C 8.8 km/h (2 Bft)
16.08.2010 03:00 13.1 C 86 % 1012.9 hPa 0.0 l/m 5.2 km/h (1 Bft) S-SO 0.00 h 0 W/m 10.9 C 13.1 C 9.5 km/h (2 Bft)
16.08.2010 04:00 13.8 C 81 % 1012.3 hPa 0.0 l/m 6.3 km/h (2 Bft) S 0.00 h 0 W/m 10.7 C 13.8 C 13.0 km/h (3 Bft)
16.08.2010 05:00 13.7 C 83 % 1012.3 hPa 0.0 l/m 5.6 km/h (1 Bft) S-SW 0.00 h 0 W/m 10.8 C 13.7 C 11.9 km/h (2 Bft)
16.08.2010 06:00 12.8 C 91 % 1012.6 hPa 0.8 l/m 5.2 km/h (1 Bft) S 0.00 h 5 W/m 11.3 C 12.8 C 10.7 km/h (2 Bft)
16.08.2010 07:00 12.5 C 94 % 1012.8 hPa 0.8 l/m 5.3 km/h (1 Bft) SW 0.00 h 21 W/m 11.5 C 12.5 C 10.6 km/h (2 Bft)
16.08.2010 08:00 12.6 C 95 % 1013.0 hPa 0.6 l/m 2.8 km/h (1 Bft) S-SW 0.00 h 49 W/m 11.8 C 12.6 C 6.6 km/h (2 Bft)
16.08.2010 09:00 13.2 C 94 % 1012.9 hPa 0.0 l/m 5.8 km/h (2 Bft) S-SO 0.00 h 123 W/m 12.3 C 13.2 C 11.5 km/h (2 Bft)
16.08.2010 10:00 13.2 C 97 % 1013.5 hPa 1.2 l/m 3.4 km/h (1 Bft) W-NW 0.00 h 104 W/m 12.8 C 13.2 C 5.9 km/h (2 Bft)
16.08.2010 11:00 13.7 C 97 % 1014.0 hPa 0.4 l/m 4.2 km/h (1 Bft) W-SW 0.00 h 147 W/m 13.3 C 13.7 C 7.7 km/h (2 Bft)
16.08.2010 12:00 13.3 C 97 % 1014.7 hPa 1.2 l/m 4.6 km/h (1 Bft) W 0.00 h 152 W/m 12.8 C 13.3 C 8.4 km/h (2 Bft)
16.08.2010 13:00 14.2 C 97 % 1015.0 hPa 0.2 l/m 4.0 km/h (1 Bft) W 0.17 h 308 W/m 13.7 C 14.2 C 7.5 km/h (2 Bft)
16.08.2010 14:00 15.1 C 95 % 1015.2 hPa 0.0 l/m 4.5 km/h (1 Bft) SW 0.05 h 361 W/m 14.3 C 15.1 C 8.2 km/h (2 Bft)
16.08.2010 15:00 14.9 C 93 % 1015.2 hPa 0.0 l/m 5.7 km/h (1 Bft) W-SW 0.00 h 260 W/m 13.8 C 14.9 C 11.0 km/h (2 Bft)
16.08.2010 16:00 14.6 C 91 % 1015.2 hPa 0.0 l/m 4.8 km/h (1 Bft) SW 0.00 h 126 W/m 13.1 C 14.6 C 9.5 km/h (2 Bft)
16.08.2010 17:00 13.9 C 93 % 1015.5 hPa 0.2 l/m 3.8 km/h (1 Bft) SW 0.00 h 75 W/m 12.9 C 13.9 C 8.3 km/h (2 Bft)
16.08.2010 18:00 14.2 C 92 % 1015.3 hPa 0.0 l/m 6.2 km/h (2 Bft) W-SW 0.00 h 86 W/m 12.9 C 14.2 C 11.0 km/h (2 Bft)
16.08.2010 19:00 13.6 C 95 % 1015.7 hPa 0.6 l/m 2.5 km/h (1 Bft) W-SW 0.00 h 22 W/m 12.8 C 13.6 C 5.5 km/h (1 Bft)
16.08.2010 20:00 13.0 C 96 % 1016.0 hPa 0.4 l/m 1.5 km/h (1 Bft) W 0.00 h 13 W/m 12.5 C 13.0 C 4.5 km/h (1 Bft)
16.08.2010 21:00 13.0 C 96 % 1016.3 hPa 0.0 l/m 1.6 km/h (1 Bft) W-SW 0.00 h 0 W/m 12.4 C 13.0 C 4.6 km/h (1 Bft)
16.08.2010 22:00 13.1 C 96 % 1016.5 hPa 0.8 l/m 3.4 km/h (1 Bft) SW 0.00 h 0 W/m 12.5 C 13.1 C 7.5 km/h (2 Bft)
16.08.2010 23:00 12.9 C 97 % 1016.9 hPa 0.8 l/m 2.0 km/h (1 Bft) W-SW 0.00 h 0 W/m 12.5 C 12.9 C 5.1 km/h (1 Bft)
17.08.2010 00:00 13.1 C 97 % 1016.8 hPa 0.6 l/m 3.6 km/h (1 Bft) SW 0.00 h 0 W/m 12.6 C 13.1 C 7.5 km/h (2 Bft)
17.08.2010 01:00 13.0 C 97 % 1016.5 hPa 0.6 l/m 3.9 km/h (1 Bft) SW 0.00 h 0 W/m 12.6 C 13.0 C 8.7 km/h (2 Bft)
17.08.2010 02:00 13.0 C 97 % 1016.2 hPa 0.4 l/m 4.7 km/h (1 Bft) SW 0.00 h 0 W/m 12.6 C 13.0 C 9.5 km/h (2 Bft)
17.08.2010 03:00 13.0 C 97 % 1015.9 hPa 1.2 l/m 4.5 km/h (1 Bft) SW 0.00 h 0 W/m 12.6 C 13.0 C 9.4 km/h (2 Bft)
17.08.2010 04:00 13.1 C 97 % 1015.9 hPa 2.0 l/m 3.9 km/h (1 Bft) S 0.00 h 0 W/m 12.7 C 13.1 C 8.6 km/h (2 Bft)
17.08.2010 05:00 13.3 C 97 % 1015.7 hPa 0.4 l/m 2.5 km/h (1 Bft) SW 0.00 h 0 W/m 12.8 C 13.3 C 5.6 km/h (1 Bft)
17.08.2010 06:00 13.5 C 96 % 1015.5 hPa 0.4 l/m 1.9 km/h (1 Bft) S-SO 0.00 h 7 W/m 12.9 C 13.5 C 4.4 km/h (1 Bft)
17.08.2010 07:00 13.6 C 96 % 1015.8 hPa 0.2 l/m 3.1 km/h (1 Bft) S-SO 0.00 h 7 W/m 12.9 C 13.6 C 5.8 km/h (2 Bft)
17.08.2010 08:00 13.8 C 97 % 1016.1 hPa 0.0 l/m 1.9 km/h (1 Bft) S 0.00 h 48 W/m 13.3 C 13.8 C 4.7 km/h (1 Bft)
17.08.2010 09:00 14.0 C 97 % 1016.3 hPa 0.0 l/m 1.3 km/h (1 Bft) W-SW 0.00 h 54 W/m 13.5 C 14.0 C 3.7 km/h (1 Bft)
17.08.2010 10:00 15.2 C 97 % 1016.3 hPa 0.0 l/m 1.6 km/h (1 Bft) W-SW 0.03 h 241 W/m 14.7 C 15.2 C 3.9 km/h (1 Bft)
17.08.2010 11:00 16.7 C 94 % 1016.0 hPa 0.0 l/m 2.5 km/h (1 Bft) W-SW 0.22 h 339 W/m 15.7 C 16.7 C 5.7 km/h (1 Bft)
17.08.2010 12:00 17.4 C 84 % 1015.8 hPa 0.0 l/m 11.3 km/h (2 Bft) W 0.48 h 456 W/m 14.7 C 17.4 C 17.8 km/h (3 Bft)
17.08.2010 13:00 17.6 C 76 % 1015.6 hPa 0.0 l/m 10.9 km/h (2 Bft) W 0.00 h 277 W/m 13.2 C 17.6 C 16.9 km/h (3 Bft)
17.08.2010 14:00 18.2 C 73 % 1015.5 hPa 0.0 l/m 7.2 km/h (2 Bft) W 0.10 h 337 W/m 13.2 C 18.2 C 11.6 km/h (2 Bft)
17.08.2010 15:00 17.8 C 71 % 1015.5 hPa 0.0 l/m 8.5 km/h (2 Bft) W 0.00 h 177 W/m 12.5 C 17.8 C 13.9 km/h (3 Bft)
17.08.2010 16:00 17.9 C 66 % 1015.4 hPa 0.0 l/m 10.8 km/h (2 Bft) W 0.00 h 197 W/m 11.6 C 17.9 C 16.9 km/h (3 Bft)
17.08.2010 17:00 17.9 C 67 % 1015.4 hPa 0.0 l/m 8.6 km/h (2 Bft) W 0.00 h 146 W/m 11.6 C 17.9 C 13.5 km/h (3 Bft)
17.08.2010 18:00 17.6 C 70 % 1014.9 hPa 0.0 l/m 4.4 km/h (1 Bft) W 0.00 h 94 W/m 12.1 C 17.6 C 7.1 km/h (2 Bft)
17.08.2010 19:00 17.2 C 71 % 1014.3 hPa 0.0 l/m 5.2 km/h (1 Bft) W 0.00 h 31 W/m 12.0 C 17.2 C 8.4 km/h (2 Bft)
17.08.2010 20:00 16.7 C 75 % 1014.3 hPa 0.0 l/m 2.7 km/h (1 Bft) W 0.00 h 8 W/m 12.2 C 16.7 C 4.6 km/h (1 Bft)
17.08.2010 21:00 15.8 C 83 % 1014.4 hPa 0.0 l/m 0.4 km/h (0 Bft) S-SW 0.00 h 0 W/m 12.8 C 15.8 C 1.4 km/h (1 Bft)
17.08.2010 22:00 15.0 C 87 % 1014.3 hPa 0.0 l/m 2.5 km/h (1 Bft) O 0.00 h 0 W/m 12.9 C 15.0 C 4.1 km/h (1 Bft)
17.08.2010 23:00 14.2 C 90 % 1014.2 hPa 0.0 l/m 2.8 km/h (1 Bft) SO 0.00 h 0 W/m 12.6 C 14.2 C 4.4 km/h (1 Bft)
18.08.2010 00:00 14.0 C 91 % 1014.1 hPa 0.0 l/m 3.8 km/h (1 Bft) O-SO 0.00 h 0 W/m 12.6 C 14.0 C 5.1 km/h (1 Bft)
18.08.2010 01:00 14.3 C 91 % 1013.8 hPa 0.0 l/m 2.9 km/h (1 Bft) SO 0.00 h 0 W/m 12.9 C 14.3 C 4.2 km/h (1 Bft)
18.08.2010 02:00 14.3 C 92 % 1013.3 hPa 0.0 l/m 1.2 km/h (1 Bft) SO 0.00 h 0 W/m 13.1 C 14.3 C 2.3 km/h (1 Bft)
18.08.2010 03:00 14.1 C 95 % 1012.9 hPa 0.0 l/m 0.1 km/h (0 Bft) SO 0.00 h 0 W/m 13.3 C 14.1 C 0.5 km/h (0 Bft)
18.08.2010 04:00 13.8 C 97 % 1012.4 hPa 0.0 l/m 0.2 km/h (0 Bft) SO 0.00 h 0 W/m 13.3 C 13.8 C 0.9 km/h (0 Bft)
18.08.2010 05:00 13.4 C 97 % 1011.9 hPa 0.0 l/m 0.6 km/h (0 Bft) SO 0.00 h 0 W/m 13.0 C 13.4 C 1.4 km/h (1 Bft)
18.08.2010 06:00 13.6 C 98 % 1011.9 hPa 0.0 l/m 0.4 km/h (0 Bft) O-SO 0.00 h 6 W/m 13.3 C 13.6 C 1.1 km/h (0 Bft)
18.08.2010 07:00 13.8 C 98 % 1011.6 hPa 0.0 l/m 0.3 km/h (0 Bft) O-SO 0.00 h 20 W/m 13.5 C 13.8 C 0.8 km/h (0 Bft)
18.08.2010 08:00 14.4 C 97 % 1011.6 hPa 0.0 l/m 0.2 km/h (0 Bft) O-SO 0.00 h 57 W/m 13.9 C 14.4 C 1.1 km/h (1 Bft)
18.08.2010 09:00 15.1 C 96 % 1011.6 hPa 0.0 l/m 0.2 km/h (0 Bft) O-SO 0.00 h 124 W/m 14.4 C 15.1 C 0.9 km/h (0 Bft)
18.08.2010 10:00 16.7 C 92 % 1011.5 hPa 0.0 l/m 0.2 km/h (0 Bft) O-SO 0.15 h 234 W/m 15.4 C 16.7 C 1.1 km/h (1 Bft)
18.08.2010 11:00 18.5 C 85 % 1011.3 hPa 0.0 l/m 1.9 km/h (1 Bft) W-SW 0.05 h 313 W/m 16.0 C 18.5 C 4.8 km/h (1 Bft)
18.08.2010 12:00 18.7 C 83 % 1011.3 hPa 0.0 l/m 3.2 km/h (1 Bft) SW 0.00 h 240 W/m 15.8 C 18.7 C 6.4 km/h (2 Bft)
18.08.2010 13:00 17.7 C 84 % 1011.7 hPa 0.0 l/m 6.5 km/h (2 Bft) W 0.00 h 155 W/m 14.9 C 17.7 C 10.7 km/h (2 Bft)
18.08.2010 14:00 17.5 C 85 % 1011.9 hPa 0.0 l/m 6.1 km/h (2 Bft) W 0.00 h 137 W/m 14.9 C 17.5 C 10.2 km/h (2 Bft)
18.08.2010 15:00 17.4 C 87 % 1012.1 hPa 0.0 l/m 3.9 km/h (1 Bft) W-NW 0.00 h 117 W/m 15.2 C 17.4 C 6.7 km/h (2 Bft)
18.08.2010 16:00 17.7 C 86 % 1012.1 hPa 0.0 l/m 2.4 km/h (1 Bft) W-NW 0.00 h 133 W/m 15.4 C 17.7 C 4.8 km/h (1 Bft)
18.08.2010 17:00 17.9 C 86 % 1012.1 hPa 0.0 l/m 2.0 km/h (1 Bft) W 0.00 h 124 W/m 15.7 C 17.9 C 4.2 km/h (1 Bft)
18.08.2010 18:00 17.9 C 87 % 1012.0 hPa 0.0 l/m 2.4 km/h (1 Bft) W 0.00 h 55 W/m 15.6 C 17.9 C 4.7 km/h (1 Bft)
18.08.2010 19:00 17.6 C 87 % 1011.7 hPa 0.0 l/m 2.1 km/h (1 Bft) W-NW 0.00 h 28 W/m 15.4 C 17.6 C 4.1 km/h (1 Bft)
18.08.2010 20:00 16.9 C 90 % 1012.2 hPa 0.0 l/m 3.3 km/h (1 Bft) NW 0.00 h 9 W/m 15.2 C 16.9 C 5.6 km/h (1 Bft)
18.08.2010 21:00 16.4 C 90 % 1012.9 hPa 0.4 l/m 9.4 km/h (2 Bft) W 0.00 h 0 W/m 14.7 C 16.4 C 14.9 km/h (3 Bft)
18.08.2010 22:00 15.6 C 94 % 1013.2 hPa 0.0 l/m 4.8 km/h (1 Bft) W 0.00 h 0 W/m 14.6 C 15.6 C 7.8 km/h (2 Bft)
18.08.2010 23:00 15.5 C 96 % 1013.5 hPa 0.0 l/m 2.8 km/h (1 Bft) O-SO 0.00 h 0 W/m 14.8 C 15.5 C 4.3 km/h (1 Bft)
19.08.2010 00:00 15.7 C 96 % 1013.7 hPa 0.0 l/m 0.9 km/h (0 Bft) SO 0.00 h 0 W/m 15.1 C 15.7 C 2.0 km/h (1 Bft)
19.08.2010 01:00 15.6 C 96 % 1014.1 hPa 0.0 l/m 0.2 km/h (0 Bft) S-SO 0.00 h 0 W/m 15.1 C 15.6 C 0.6 km/h (0 Bft)
19.08.2010 02:00 15.5 C 97 % 1014.6 hPa 0.0 l/m 1.2 km/h (1 Bft) W-NW 0.00 h 0 W/m 14.9 C 15.5 C 2.7 km/h (1 Bft)
19.08.2010 03:00 15.2 C 95 % 1014.8 hPa 0.0 l/m 0.3 km/h (0 Bft) S-SO 0.00 h 0 W/m 14.4 C 15.2 C 1.0 km/h (0 Bft)
19.08.2010 04:00 15.1 C 95 % 1014.9 hPa 0.0 l/m 0.7 km/h (0 Bft) S-SO 0.00 h 0 W/m 14.4 C 15.1 C 1.7 km/h (1 Bft)
19.08.2010 05:00 15.0 C 94 % 1015.1 hPa 0.0 l/m 0.5 km/h (0 Bft) SO 0.00 h 0 W/m 14.1 C 15.0 C 1.7 km/h (1 Bft)
19.08.2010 06:00 15.1 C 94 % 1015.5 hPa 0.0 l/m 0.6 km/h (0 Bft) SO 0.00 h 7 W/m 14.0 C 15.1 C 1.5 km/h (1 Bft)
19.08.2010 07:00 15.2 C 95 % 1016.2 hPa 0.0 l/m 0.3 km/h (0 Bft) SO 0.00 h 29 W/m 14.3 C 15.2 C 1.2 km/h (1 Bft)
19.08.2010 08:00 16.5 C 92 % 1016.6 hPa 0.0 l/m 0.3 km/h (0 Bft) W 0.20 h 155 W/m 15.2 C 16.5 C 1.8 km/h (1 Bft)
19.08.2010 09:00 16.9 C 89 % 1017.2 hPa 0.0 l/m 2.2 km/h (1 Bft) W-SW 0.07 h 185 W/m 15.1 C 16.9 C 4.6 km/h (1 Bft)
19.08.2010 10:00 17.7 C 87 % 1017.5 hPa 0.0 l/m 1.7 km/h (1 Bft) W 0.05 h 270 W/m 15.5 C 17.7 C 4.0 km/h (1 Bft)
19.08.2010 11:00 20.2 C 79 % 1017.4 hPa 0.0 l/m 2.6 km/h (1 Bft) W-SW 0.92 h 714 W/m 16.3 C 20.2 C 5.6 km/h (1 Bft)
19.08.2010 12:00 20.5 C 76 % 1017.2 hPa 0.0 l/m 2.0 km/h (1 Bft) W-NW 0.68 h 542 W/m 16.1 C 20.5 C 4.3 km/h (1 Bft)
19.08.2010 13:00 20.8 C 74 % 1016.9 hPa 0.0 l/m 2.0 km/h (1 Bft) W-NW 0.28 h 418 W/m 15.9 C 20.8 C 4.1 km/h (1 Bft)
19.08.2010 14:00 21.7 C 74 % 1017.0 hPa 0.0 l/m 2.5 km/h (1 Bft) W 0.58 h 566 W/m 16.7 C 21.7 C 5.3 km/h (1 Bft)
19.08.2010 15:00 23.1 C 69 % 1016.5 hPa 0.0 l/m 4.0 km/h (1 Bft) W 1.00 h 694 W/m 17.1 C 23.1 C 6.8 km/h (2 Bft)
19.08.2010 16:00 23.8 C 67 % 1016.3 hPa 0.0 l/m 3.2 km/h (1 Bft) W-SW 0.90 h 525 W/m 17.2 C 23.8 C 6.2 km/h (2 Bft)
19.08.2010 17:00 23.7 C 67 % 1016.3 hPa 0.0 l/m 2.8 km/h (1 Bft) W 0.85 h 357 W/m 17.1 C 23.7 C 5.4 km/h (1 Bft)
19.08.2010 18:00 23.4 C 68 % 1016.5 hPa 0.0 l/m 2.8 km/h (1 Bft) W 0.77 h 220 W/m 17.2 C 23.4 C 5.1 km/h (1 Bft)
19.08.2010 19:00 22.7 C 71 % 1016.6 hPa 0.0 l/m 0.8 km/h (0 Bft) W-NW 0.52 h 95 W/m 17.1 C 22.7 C 2.2 km/h (1 Bft)
19.08.2010 20:00 20.3 C 82 % 1017.1 hPa 0.0 l/m 3.2 km/h (1 Bft) O-SO 0.02 h 13 W/m 17.1 C 20.3 C 4.4 km/h (1 Bft)
19.08.2010 21:00 18.7 C 89 % 1017.9 hPa 0.0 l/m 3.0 km/h (1 Bft) SO 0.00 h 0 W/m 16.9 C 18.7 C 4.4 km/h (1 Bft)
19.08.2010 22:00 17.6 C 92 % 1018.2 hPa 0.0 l/m 0.9 km/h (0 Bft) SO 0.00 h 0 W/m 16.2 C 17.6 C 1.9 km/h (1 Bft)
19.08.2010 23:00 16.5 C 94 % 1018.3 hPa 0.0 l/m 0.6 km/h (0 Bft) SO 0.00 h 0 W/m 15.6 C 16.5 C 1.1 km/h (1 Bft)
20.08.2010 00:00 16.0 C 96 % 1018.5 hPa 0.0 l/m 1.3 km/h (1 Bft) SO 0.00 h 0 W/m 15.3 C 16.0 C 2.5 km/h (1 Bft)
20.08.2010 01:00 15.5 C 96 % 1018.6 hPa 0.0 l/m 0.1 km/h (0 Bft) SO 0.00 h 0 W/m 15.0 C 15.5 C 0.5 km/h (0 Bft)
20.08.2010 02:00 15.3 C 97 % 1018.5 hPa 0.0 l/m 0.0 km/h (0 Bft) N 0.00 h 0 W/m 14.9 C 15.3 C 0.0 km/h (0 Bft)
20.08.2010 03:00 15.2 C 97 % 1018.6 hPa 0.0 l/m 0.1 km/h (0 Bft) SO 0.00 h 0 W/m 14.7 C 15.2 C 0.3 km/h (0 Bft)
20.08.2010 04:00 14.9 C 97 % 1018.6 hPa 0.0 l/m 0.0 km/h (0 Bft) N 0.00 h 0 W/m 14.4 C 14.9 C 0.1 km/h (0 Bft)
20.08.2010 05:00 14.5 C 98 % 1018.6 hPa 0.0 l/m 0.1 km/h (0 Bft) SO 0.00 h 0 W/m 14.1 C 14.5 C 0.4 km/h (0 Bft)
20.08.2010 06:00 14.3 C 98 % 1019.0 hPa 0.0 l/m 0.0 km/h (0 Bft) N 0.00 h 11 W/m 14.0 C 14.3 C 0.1 km/h (0 Bft)
20.08.2010 07:00 14.9 C 98 % 1019.6 hPa 0.0 l/m 0.0 km/h (0 Bft) SO 0.05 h 61 W/m 14.5 C 14.9 C 0.1 km/h (0 Bft)
20.08.2010 08:00 16.3 C 95 % 1019.8 hPa 0.0 l/m 0.0 km/h (0 Bft) SO 0.47 h 170 W/m 15.4 C 16.3 C 0.5 km/h (0 Bft)
20.08.2010 09:00 18.5 C 89 % 1019.8 hPa 0.0 l/m 0.4 km/h (0 Bft) O-NO 0.53 h 279 W/m 16.7 C 18.5 C 1.4 km/h (1 Bft)
20.08.2010 10:00 20.1 C 84 % 1020.0 hPa 0.0 l/m 1.2 km/h (1 Bft) N 0.78 h 424 W/m 17.4 C 20.1 C 3.0 km/h (1 Bft)
20.08.2010 11:00 22.4 C 78 % 1019.9 hPa 0.0 l/m 2.0 km/h (1 Bft) W 1.00 h 642 W/m 18.5 C 22.4 C 3.8 km/h (1 Bft)
20.08.2010 12:00 24.2 C 74 % 1019.7 hPa 0.0 l/m 1.2 km/h (1 Bft) S-SO 1.00 h 699 W/m 19.2 C 24.2 C 3.2 km/h (1 Bft)
20.08.2010 13:00 25.7 C 71 % 1019.4 hPa 0.0 l/m 1.6 km/h (1 Bft) S-SO 1.00 h 709 W/m 20.1 C 25.7 C 4.1 km/h (1 Bft)
20.08.2010 14:00 27.0 C 68 % 1019.3 hPa 0.0 l/m 4.4 km/h (1 Bft) W 0.95 h 682 W/m 20.4 C 27.0 C 7.2 km/h (2 Bft)
20.08.2010 15:00 27.8 C 62 % 1019.2 hPa 0.0 l/m 6.9 km/h (2 Bft) W 1.00 h 621 W/m 19.9 C 27.8 C 10.7 km/h (2 Bft)
20.08.2010 16:00 28.0 C 62 % 1019.3 hPa 0.0 l/m 7.4 km/h (2 Bft) W 1.00 h 508 W/m 20.2 C 28.0 C 11.9 km/h (2 Bft)
20.08.2010 17:00 27.6 C 64 % 1019.4 hPa 0.0 l/m 7.5 km/h (2 Bft) W 1.00 h 367 W/m 20.2 C 27.6 C 12.1 km/h (2 Bft)
20.08.2010 18:00 27.3 C 65 % 1019.7 hPa 0.0 l/m 4.7 km/h (1 Bft) W-SW 1.00 h 221 W/m 20.1 C 27.3 C 8.1 km/h (2 Bft)
20.08.2010 19:00 25.8 C 69 % 1020.1 hPa 0.0 l/m 3.2 km/h (1 Bft) W 0.28 h 80 W/m 19.6 C 25.8 C 5.7 km/h (1 Bft)
20.08.2010 20:00 23.5 C 78 % 1020.8 hPa 0.0 l/m 1.7 km/h (1 Bft) O-SO 0.03 h 14 W/m 19.3 C 23.5 C 3.1 km/h (1 Bft)
20.08.2010 21:00 21.8 C 85 % 1021.6 hPa 0.0 l/m 3.9 km/h (1 Bft) S-SO 0.00 h 0 W/m 19.1 C 21.8 C 5.3 km/h (1 Bft)
20.08.2010 22:00 21.1 C 88 % 1022.2 hPa 0.0 l/m 0.7 km/h (0 Bft) O-SO 0.00 h 0 W/m 19.0 C 21.1 C 1.6 km/h (1 Bft)
20.08.2010 23:00 20.0 C 92 % 1022.6 hPa 0.0 l/m 1.0 km/h (0 Bft) O-SO 0.00 h 0 W/m 18.6 C 20.0 C 1.5 km/h (1 Bft)
21.08.2010 00:00 19.5 C 94 % 1022.9 hPa 0.0 l/m 2.0 km/h (1 Bft) O-SO 0.00 h 0 W/m 18.5 C 19.5 C 2.9 km/h (1 Bft)
21.08.2010 01:00 19.0 C 95 % 1023.0 hPa 0.0 l/m 1.3 km/h (1 Bft) O-SO 0.00 h 0 W/m 18.2 C 19.0 C 2.2 km/h (1 Bft)
21.08.2010 02:00 18.3 C 96 % 1023.1 hPa 0.0 l/m 0.0 km/h (0 Bft) N 0.00 h 0 W/m 17.6 C 18.3 C 0.2 km/h (0 Bft)
21.08.2010 03:00 17.7 C 97 % 1023.1 hPa 0.0 l/m 0.0 km/h (0 Bft) N 0.00 h 0 W/m 17.2 C 17.7 C 0.3 km/h (0 Bft)
21.08.2010 04:00 17.4 C 97 % 1023.1 hPa 0.0 l/m 0.0 km/h (0 Bft) N 0.00 h 0 W/m 17.0 C 17.4 C 0.0 km/h (0 Bft)
21.08.2010 05:00 17.6 C 98 % 1023.3 hPa 0.0 l/m 0.0 km/h (0 Bft) N 0.00 h 0 W/m 17.3 C 17.6 C 0.3 km/h (0 Bft)
21.08.2010 06:00 17.6 C 98 % 1023.8 hPa 0.0 l/m 0.0 km/h (0 Bft) N 0.00 h 9 W/m 17.3 C 17.6 C 0.1 km/h (0 Bft)
21.08.2010 07:00 17.8 C 99 % 1024.3 hPa 0.0 l/m 0.0 km/h (0 Bft) N 0.00 h 43 W/m 17.7 C 17.8 C 0.0 km/h (0 Bft)
21.08.2010 08:00 18.3 C 99 % 1024.7 hPa 0.0 l/m 0.1 km/h (0 Bft) O-SO 0.05 h 117 W/m 18.2 C 18.3 C 0.7 km/h (0 Bft)
21.08.2010 09:00 19.8 C 96 % 1024.9 hPa 0.0 l/m 0.3 km/h (0 Bft) SW 0.35 h 268 W/m 19.2 C 19.8 C 1.4 km/h (1 Bft)
21.08.2010 10:00 21.9 C 89 % 1024.8 hPa 0.0 l/m 2.3 km/h (1 Bft) W 0.93 h 487 W/m 20.0 C 21.9 C 4.2 km/h (1 Bft)
21.08.2010 11:00 24.3 C 83 % 1024.5 hPa 0.0 l/m 0.8 km/h (0 Bft) SW 1.00 h 644 W/m 21.2 C 24.3 C 2.5 km/h (1 Bft)
21.08.2010 12:00 26.2 C 77 % 1023.8 hPa 0.0 l/m 1.2 km/h (1 Bft) W 1.00 h 727 W/m 21.8 C 26.2 C 3.2 km/h (1 Bft)
21.08.2010 13:00 27.4 C 68 % 1023.2 hPa 0.0 l/m 1.7 km/h (1 Bft) O-SO 1.00 h 766 W/m 21.0 C 27.4 C 3.9 km/h (1 Bft)
21.08.2010 14:00 28.2 C 63 % 1022.9 hPa 0.0 l/m 2.3 km/h (1 Bft) NW 1.00 h 742 W/m 20.5 C 28.2 C 4.9 km/h (1 Bft)
21.08.2010 15:00 29.0 C 59 % 1022.4 hPa 0.0 l/m 4.1 km/h (1 Bft) W 1.00 h 667 W/m 20.2 C 29.0 C 6.7 km/h (2 Bft)
21.08.2010 16:00 29.7 C 55 % 1022.0 hPa 0.0 l/m 4.8 km/h (1 Bft) W 1.00 h 557 W/m 19.8 C 29.7 C 7.8 km/h (2 Bft)
21.08.2010 17:00 29.7 C 54 % 1021.7 hPa 0.0 l/m 5.1 km/h (1 Bft) W 1.00 h 413 W/m 19.3 C 29.7 C 8.3 km/h (2 Bft)
21.08.2010 18:00 29.0 C 53 % 1021.4 hPa 0.0 l/m 3.6 km/h (1 Bft) W-SW 1.00 h 250 W/m 18.5 C 29.0 C 6.1 km/h (2 Bft)
21.08.2010 19:00 27.4 C 58 % 1021.3 hPa 0.0 l/m 0.4 km/h (0 Bft) W-SW 0.78 h 97 W/m 18.4 C 27.4 C 1.9 km/h (1 Bft)
21.08.2010 20:00 24.0 C 74 % 1021.6 hPa 0.0 l/m 2.7 km/h (1 Bft) O-SO 0.05 h 15 W/m 19.1 C 24.0 C 4.1 km/h (1 Bft)
21.08.2010 21:00 21.4 C 84 % 1022.1 hPa 0.0 l/m 3.6 km/h (1 Bft) O-SO 0.00 h 0 W/m 18.6 C 21.4 C 5.2 km/h (1 Bft)
21.08.2010 22:00 20.1 C 87 % 1022.3 hPa 0.0 l/m 2.0 km/h (1 Bft) O-SO 0.00 h 0 W/m 18.0 C 20.1 C 3.0 km/h (1 Bft)
21.08.2010 23:00 18.9 C 91 % 1022.4 hPa 0.0 l/m 1.2 km/h (1 Bft) O-SO 0.00 h 0 W/m 17.4 C 18.9 C 2.1 km/h (1 Bft)
22.08.2010 00:00 18.2 C 93 % 1022.2 hPa 0.0 l/m 0.2 km/h (0 Bft) O-SO 0.00 h 0 W/m 17.0 C 18.2 C 0.8 km/h (0 Bft)
22.08.2010 01:00 17.5 C 94 % 1021.9 hPa 0.0 l/m 0.6 km/h (0 Bft) O-SO 0.00 h 0 W/m 16.6 C 17.5 C 1.4 km/h (1 Bft)
22.08.2010 02:00 17.1 C 95 % 1021.5 hPa 0.0 l/m 0.2 km/h (0 Bft) O-SO 0.00 h 0 W/m 16.3 C 17.1 C 0.6 km/h (0 Bft)
22.08.2010 03:00 16.6 C 96 % 1021.1 hPa 0.0 l/m 0.2 km/h (0 Bft) O-SO 0.00 h 0 W/m 16.0 C 16.6 C 0.7 km/h (0 Bft)
22.08.2010 04:00 15.9 C 97 % 1020.7 hPa 0.0 l/m 0.3 km/h (0 Bft) O-SO 0.00 h 0 W/m 15.4 C 15.9 C 0.5 km/h (0 Bft)
22.08.2010 05:00 15.7 C 97 % 1020.5 hPa 0.0 l/m 0.5 km/h (0 Bft) O-SO 0.00 h 0 W/m 15.2 C 15.7 C 0.8 km/h (0 Bft)
22.08.2010 06:00 15.4 C 97 % 1020.5 hPa 0.0 l/m 0.0 km/h (0 Bft) N 0.00 h 11 W/m 15.0 C 15.4 C 0.0 km/h (0 Bft)
22.08.2010 07:00 16.1 C 98 % 1020.5 hPa 0.0 l/m 0.0 km/h (0 Bft) N 0.00 h 48 W/m 15.8 C 16.1 C 0.0 km/h (0 Bft)
22.08.2010 08:00 16.7 C 98 % 1020.5 hPa 0.0 l/m 0.3 km/h (0 Bft) O-SO 0.07 h 136 W/m 16.4 C 16.7 C 1.1 km/h (1 Bft)
22.08.2010 09:00 19.9 C 92 % 1019.6 hPa 0.0 l/m 0.9 km/h (0 Bft) W 1.00 h 386 W/m 18.5 C 19.9 C 2.6 km/h (1 Bft)
22.08.2010 10:00 22.4 C 85 % 1019.4 hPa 0.0 l/m 1.5 km/h (1 Bft) N 1.00 h 541 W/m 19.7 C 22.4 C 3.2 km/h (1 Bft)
22.08.2010 11:00 24.5 C 78 % 1018.8 hPa 0.0 l/m 1.0 km/h (0 Bft) W-SW 1.00 h 666 W/m 20.5 C 24.5 C 2.6 km/h (1 Bft)
22.08.2010 12:00 26.4 C 72 % 1018.0 hPa 0.0 l/m 1.6 km/h (1 Bft) O-SO 1.00 h 748 W/m 21.0 C 26.4 C 3.8 km/h (1 Bft)
22.08.2010 13:00 28.1 C 68 % 1017.0 hPa 0.0 l/m 2.5 km/h (1 Bft) S-SO 1.00 h 778 W/m 21.6 C 28.1 C 5.0 km/h (1 Bft)
22.08.2010 14:00 29.1 C 58 % 1016.3 hPa 0.0 l/m 6.4 km/h (2 Bft) W 1.00 h 757 W/m 19.8 C 29.1 C 10.8 km/h (2 Bft)
22.08.2010 15:00 29.8 C 52 % 1015.6 hPa 0.0 l/m 7.0 km/h (2 Bft) W 1.00 h 663 W/m 18.9 C 29.8 C 11.6 km/h (2 Bft)
22.08.2010 16:00 29.7 C 53 % 1014.8 hPa 0.0 l/m 6.1 km/h (2 Bft) W 0.93 h 491 W/m 19.1 C 29.7 C 9.6 km/h (2 Bft)
22.08.2010 17:00 28.8 C 57 % 1014.1 hPa 0.0 l/m 5.3 km/h (1 Bft) W 0.32 h 255 W/m 19.3 C 28.8 C 8.3 km/h (2 Bft)
22.08.2010 18:00 27.7 C 59 % 1013.9 hPa 0.0 l/m 4.4 km/h (1 Bft) W 0.13 h 138 W/m 19.0 C 27.7 C 7.2 km/h (2 Bft)
22.08.2010 19:00 26.9 C 60 % 1014.1 hPa 0.0 l/m 11.2 km/h (2 Bft) W 0.17 h 63 W/m 18.3 C 26.9 C 17.2 km/h (3 Bft)
22.08.2010 20:00 25.4 C 69 % 1014.4 hPa 0.0 l/m 5.8 km/h (2 Bft) W 0.00 h 6 W/m 19.3 C 25.4 C 9.2 km/h (2 Bft)
22.08.2010 21:00 23.7 C 75 % 1014.4 hPa 0.0 l/m 1.5 km/h (1 Bft) O-SO 0.00 h 0 W/m 19.1 C 23.7 C 2.8 km/h (1 Bft)
22.08.2010 22:00 21.9 C 84 % 1014.0 hPa 0.0 l/m 2.3 km/h (1 Bft) O-SO 0.00 h 0 W/m 19.0 C 21.9 C 3.4 km/h (1 Bft)
22.08.2010 23:00 20.6 C 89 % 1013.7 hPa 0.0 l/m 2.8 km/h (1 Bft) O-SO 0.00 h 0 W/m 18.6 C 20.6 C 4.1 km/h (1 Bft)
Min-Datum _ 16.08.10 22.08.10 18.08.10 - 16.08.10 - - - 16.08.10 16.08.10 16.08.10
_ Min-Zeit 07:33 15:19 11:00 - 00:19 - - - 04:26 07:33 01:36
Minimum _ 12.3 C 47 % 1011.3 hPa - 0.0 km/h (0 Bft) - - - 10.4 C 12.3 C 0.0 km/h (0 Bft)
Max-Datum _ 22.08.10 16.08.10 21.08.10 17.08.10 17.08.10 - 16.08.10 19.08.10 22.08.10 22.08.10 17.08.10
_ Max-Zeit 16:58 23:13 09:15 04:09 16:06 - 13:01 13:08 13:04 16:58 16:39
Maximum _ 30.4 C 100 % 1025.0 hPa 2.0 l/m 21.4 km/h
W (4 Bft)
- 0.02 h 905 W/m 23.1 C 30.4 C 33.0 km/h
W (5 Bft)
Durchschnitt _ 18.4 C 86 % 1017.0 hPa #14.2 l/m 2.7 km/h (1 Bft) W #36:58 h 265 W/m 15.7 C 18.4 C 5.1 km/h (1 Bft)
© Kaiko 2010